sensor_id;sensor_type;location;lat;lon;timestamp;pressure;altitude;pressure_sealevel;temperature
69785;BMP280;14177;51.520;6.764;2023-04-24T00:02:00;99803.03;;;12.29
69785;BMP280;14177;51.520;6.764;2023-04-24T00:04:27;99813.66;;;12.24
69785;BMP280;14177;51.520;6.764;2023-04-24T00:06:55;99812.91;;;12.22
69785;BMP280;14177;51.520;6.764;2023-04-24T00:09:23;99810.22;;;12.24
69785;BMP280;14177;51.520;6.764;2023-04-24T00:11:51;99803.50;;;12.20
69785;BMP280;14177;51.520;6.764;2023-04-24T00:14:18;99816.75;;;12.15
69785;BMP280;14177;51.520;6.764;2023-04-24T00:16:45;99805.66;;;12.12
69785;BMP280;14177;51.520;6.764;2023-04-24T00:19:12;99818.56;;;12.13
69785;BMP280;14177;51.520;6.764;2023-04-24T00:21:40;99813.38;;;12.13
69785;BMP280;14177;51.520;6.764;2023-04-24T00:24:07;99824.47;;;12.17
69785;BMP280;14177;51.520;6.764;2023-04-24T00:26:35;99820.97;;;12.18
69785;BMP280;14177;51.520;6.764;2023-04-24T00:29:02;99825.63;;;12.11
69785;BMP280;14177;51.520;6.764;2023-04-24T00:31:29;99820.81;;;12.04
69785;BMP280;14177;51.520;6.764;2023-04-24T00:33:57;99813.84;;;12.05
69785;BMP280;14177;51.520;6.764;2023-04-24T00:36:24;99831.63;;;11.97
69785;BMP280;14177;51.520;6.764;2023-04-24T00:38:51;99829.41;;;12.06
69785;BMP280;14177;51.520;6.764;2023-04-24T00:41:18;99823.84;;;11.97
69785;BMP280;14177;51.520;6.764;2023-04-24T00:43:45;99825.44;;;11.99
69785;BMP280;14177;51.520;6.764;2023-04-24T00:46:14;99826.81;;;11.89
69785;BMP280;14177;51.520;6.764;2023-04-24T00:48:43;99821.91;;;11.83
69785;BMP280;14177;51.520;6.764;2023-04-24T00:51:10;99824.00;;;11.77
69785;BMP280;14177;51.520;6.764;2023-04-24T00:53:37;99819.78;;;11.74
69785;BMP280;14177;51.520;6.764;2023-04-24T00:56:05;99812.06;;;11.73
69785;BMP280;14177;51.520;6.764;2023-04-24T00:58:32;99824.59;;;11.65
69785;BMP280;14177;51.520;6.764;2023-04-24T01:01:00;99821.91;;;11.66
69785;BMP280;14177;51.520;6.764;2023-04-24T01:03:30;99844.88;;;11.58
69785;BMP280;14177;51.520;6.764;2023-04-24T01:05:58;99831.13;;;11.56
69785;BMP280;14177;51.520;6.764;2023-04-24T01:08:28;99840.75;;;11.54
69785;BMP280;14177;51.520;6.764;2023-04-24T01:10:57;99830.47;;;11.51
69785;BMP280;14177;51.520;6.764;2023-04-24T01:13:25;99826.53;;;11.43
69785;BMP280;14177;51.520;6.764;2023-04-24T01:15:51;99826.94;;;11.35
69785;BMP280;14177;51.520;6.764;2023-04-24T01:18:19;99821.63;;;11.37
69785;BMP280;14177;51.520;6.764;2023-04-24T01:20:53;99830.59;;;11.31
69785;BMP280;14177;51.520;6.764;2023-04-24T01:23:20;99820.56;;;11.24
69785;BMP280;14177;51.520;6.764;2023-04-24T01:25:49;99813.69;;;11.23
69785;BMP280;14177;51.520;6.764;2023-04-24T01:28:18;99806.03;;;11.20
69785;BMP280;14177;51.520;6.764;2023-04-24T01:30:45;99823.31;;;11.21
69785;BMP280;14177;51.520;6.764;2023-04-24T01:33:12;99816.34;;;11.21
69785;BMP280;14177;51.520;6.764;2023-04-24T01:35:39;99810.38;;;11.19
69785;BMP280;14177;51.520;6.764;2023-04-24T01:38:06;99818.31;;;11.16
69785;BMP280;14177;51.520;6.764;2023-04-24T01:40:35;99828.19;;;11.10
69785;BMP280;14177;51.520;6.764;2023-04-24T01:43:02;99818.00;;;11.05
69785;BMP280;14177;51.520;6.764;2023-04-24T01:45:29;99823.19;;;11.05
69785;BMP280;14177;51.520;6.764;2023-04-24T01:47:57;99824.88;;;11.06
69785;BMP280;14177;51.520;6.764;2023-04-24T01:50:24;99821.06;;;11.13
69785;BMP280;14177;51.520;6.764;2023-04-24T01:52:50;99827.56;;;11.05
69785;BMP280;14177;51.520;6.764;2023-04-24T01:55:17;99819.91;;;11.02
69785;BMP280;14177;51.520;6.764;2023-04-24T01:57:44;99815.47;;;11.04
69785;BMP280;14177;51.520;6.764;2023-04-24T02:00:12;99818.75;;;11.07
69785;BMP280;14177;51.520;6.764;2023-04-24T02:02:40;99821.44;;;11.06
69785;BMP280;14177;51.520;6.764;2023-04-24T02:05:09;99821.66;;;11.01
69785;BMP280;14177;51.520;6.764;2023-04-24T02:07:36;99830.22;;;11.03
69785;BMP280;14177;51.520;6.764;2023-04-24T02:10:04;99830.16;;;11.05
69785;BMP280;14177;51.520;6.764;2023-04-24T02:12:31;99837.88;;;11.06
69785;BMP280;14177;51.520;6.764;2023-04-24T02:14:58;99821.66;;;11.01
69785;BMP280;14177;51.520;6.764;2023-04-24T02:17:25;99837.38;;;10.98
69785;BMP280;14177;51.520;6.764;2023-04-24T02:19:52;99826.22;;;10.96
69785;BMP280;14177;51.520;6.764;2023-04-24T02:22:19;99820.09;;;10.97
69785;BMP280;14177;51.520;6.764;2023-04-24T02:24:46;99839.94;;;11.00
69785;BMP280;14177;51.520;6.764;2023-04-24T02:27:15;99828.81;;;10.96
69785;BMP280;14177;51.520;6.764;2023-04-24T02:29:41;99832.91;;;11.02
69785;BMP280;14177;51.520;6.764;2023-04-24T02:32:09;99828.97;;;10.93
69785;BMP280;14177;51.520;6.764;2023-04-24T02:34:39;99837.69;;;10.92
69785;BMP280;14177;51.520;6.764;2023-04-24T02:37:06;99836.22;;;10.87
69785;BMP280;14177;51.520;6.764;2023-04-24T02:39:33;99829.13;;;10.90
69785;BMP280;14177;51.520;6.764;2023-04-24T02:42:00;99823.06;;;10.90
69785;BMP280;14177;51.520;6.764;2023-04-24T02:44:29;99809.25;;;10.89
69785;BMP280;14177;51.520;6.764;2023-04-24T02:46:56;99821.53;;;10.86
69785;BMP280;14177;51.520;6.764;2023-04-24T02:49:22;99833.75;;;10.84
69785;BMP280;14177;51.520;6.764;2023-04-24T02:51:49;99823.66;;;10.78
69785;BMP280;14177;51.520;6.764;2023-04-24T02:54:16;99835.03;;;10.76
69785;BMP280;14177;51.520;6.764;2023-04-24T02:56:43;99835.72;;;10.79
69785;BMP280;14177;51.520;6.764;2023-04-24T02:59:10;99834.75;;;10.82
69785;BMP280;14177;51.520;6.764;2023-04-24T03:01:37;99833.91;;;10.81
69785;BMP280;14177;51.520;6.764;2023-04-24T03:04:04;99837.50;;;10.79
69785;BMP280;14177;51.520;6.764;2023-04-24T03:06:32;99845.97;;;10.82
69785;BMP280;14177;51.520;6.764;2023-04-24T03:09:02;99848.50;;;10.84
69785;BMP280;14177;51.520;6.764;2023-04-24T03:11:31;99845.97;;;10.82
69785;BMP280;14177;51.520;6.764;2023-04-24T03:14:00;99855.81;;;10.76
69785;BMP280;14177;51.520;6.764;2023-04-24T03:16:26;99861.78;;;10.78
69785;BMP280;14177;51.520;6.764;2023-04-24T03:18:54;99848.78;;;10.78
69785;BMP280;14177;51.520;6.764;2023-04-24T03:21:23;99845.44;;;10.76
69785;BMP280;14177;51.520;6.764;2023-04-24T03:23:50;99857.41;;;10.78
69785;BMP280;14177;51.520;6.764;2023-04-24T03:26:17;99862.56;;;10.80
69785;BMP280;14177;51.520;6.764;2023-04-24T03:28:58;99856.94;;;10.88
69785;BMP280;14177;51.520;6.764;2023-04-24T03:31:24;99858.00;;;10.85
69785;BMP280;14177;51.520;6.764;2023-04-24T03:33:52;99850.47;;;10.79
69785;BMP280;14177;51.520;6.764;2023-04-24T03:36:19;99848.78;;;10.78
69785;BMP280;14177;51.520;6.764;2023-04-24T03:38:45;99859.19;;;10.78
69785;BMP280;14177;51.520;6.764;2023-04-24T03:41:21;99863.53;;;10.77
69785;BMP280;14177;51.520;6.764;2023-04-24T03:43:53;99853.75;;;10.82
69785;BMP280;14177;51.520;6.764;2023-04-24T03:46:20;99858.63;;;10.89
69785;BMP280;14177;51.520;6.764;2023-04-24T03:48:53;99874.63;;;10.81
69785;BMP280;14177;51.520;6.764;2023-04-24T03:51:24;99855.59;;;10.80
69785;BMP280;14177;51.520;6.764;2023-04-24T03:53:55;99872.09;;;10.79
69785;BMP280;14177;51.520;6.764;2023-04-24T03:56:24;99850.41;;;10.80
69785;BMP280;14177;51.520;6.764;2023-04-24T03:58:51;99855.41;;;10.85
69785;BMP280;14177;51.520;6.764;2023-04-24T04:01:18;99856.31;;;10.84
69785;BMP280;14177;51.520;6.764;2023-04-24T04:03:53;99858.00;;;10.85
69785;BMP280;14177;51.520;6.764;2023-04-24T04:06:24;99856.44;;;10.81
69785;BMP280;14177;51.520;6.764;2023-04-24T04:08:53;99858.91;;;10.84
69785;BMP280;14177;51.520;6.764;2023-04-24T04:11:20;99855.53;;;10.82
69785;BMP280;14177;51.520;6.764;2023-04-24T04:13:50;99858.91;;;10.84
69785;BMP280;14177;51.520;6.764;2023-04-24T04:16:19;99865.16;;;10.80
69785;BMP280;14177;51.520;6.764;2023-04-24T04:18:49;99858.91;;;10.84
69785;BMP280;14177;51.520;6.764;2023-04-24T04:21:16;99874.63;;;10.81
69785;BMP280;14177;51.520;6.764;2023-04-24T04:23:43;99876.19;;;10.85
69785;BMP280;14177;51.520;6.764;2023-04-24T04:26:16;99878.00;;;10.83
69785;BMP280;14177;51.520;6.764;2023-04-24T04:29:14;99876.19;;;10.85
69785;BMP280;14177;51.520;6.764;2023-04-24T04:31:45;99874.63;;;10.81
69785;BMP280;14177;51.520;6.764;2023-04-24T04:34:13;99872.03;;;10.81
69785;BMP280;14177;51.520;6.764;2023-04-24T04:36:41;99873.00;;;10.78
69785;BMP280;14177;51.520;6.764;2023-04-24T04:39:28;99888.53;;;10.80
69785;BMP280;14177;51.520;6.764;2023-04-24T04:42:01;99878.91;;;10.82
69785;BMP280;14177;51.520;6.764;2023-04-24T04:44:38;99879.06;;;10.79
69785;BMP280;14177;51.520;6.764;2023-04-24T04:47:08;99883.34;;;10.80
69785;BMP280;14177;51.520;6.764;2023-04-24T04:49:38;99885.16;;;10.78
69785;BMP280;14177;51.520;6.764;2023-04-24T04:52:10;99889.63;;;10.74
69785;BMP280;14177;51.520;6.764;2023-04-24T04:54:39;99896.38;;;10.78
69785;BMP280;14177;51.520;6.764;2023-04-24T04:57:06;99886.22;;;10.74
69785;BMP280;14177;51.520;6.764;2023-04-24T04:59:35;99886.13;;;10.75
69785;BMP280;14177;51.520;6.764;2023-04-24T05:02:06;99888.53;;;10.80
69785;BMP280;14177;51.520;6.764;2023-04-24T05:04:33;99886.56;;;10.85
69785;BMP280;14177;51.520;6.764;2023-04-24T05:07:00;99893.31;;;10.88
69785;BMP280;14177;51.520;6.764;2023-04-24T05:09:30;99897.16;;;10.80
69785;BMP280;14177;51.520;6.764;2023-04-24T05:12:01;99886.00;;;10.78
69785;BMP280;14177;51.520;6.764;2023-04-24T05:14:32;99900.81;;;10.76
69785;BMP280;14177;51.520;6.764;2023-04-24T05:17:00;99898.34;;;10.73
69785;BMP280;14177;51.520;6.764;2023-04-24T05:19:27;99889.09;;;10.68
69785;BMP280;14177;51.520;6.764;2023-04-24T05:21:54;99896.09;;;10.66
69785;BMP280;14177;51.520;6.764;2023-04-24T05:24:21;99896.38;;;10.60
69785;BMP280;14177;51.520;6.764;2023-04-24T05:27:04;99892.88;;;10.61
69785;BMP280;14177;51.520;6.764;2023-04-24T05:29:38;99897.28;;;10.59
69785;BMP280;14177;51.520;6.764;2023-04-24T05:32:07;99901.56;;;10.60
69785;BMP280;14177;51.520;6.764;2023-04-24T05:34:37;99902.53;;;10.57
69785;BMP280;14177;51.520;6.764;2023-04-24T05:37:03;99898.31;;;10.55
69785;BMP280;14177;51.520;6.764;2023-04-24T05:39:35;99902.59;;;10.56
69785;BMP280;14177;51.520;6.764;2023-04-24T05:42:03;99906.75;;;10.60
69785;BMP280;14177;51.520;6.764;2023-04-24T05:44:31;99911.25;;;10.56
69785;BMP280;14177;51.520;6.764;2023-04-24T05:46:59;99908.97;;;10.49
69785;BMP280;14177;51.520;6.764;2023-04-24T05:49:26;99914.69;;;10.37
69785;BMP280;14177;51.520;6.764;2023-04-24T05:51:53;99910.16;;;10.42
69785;BMP280;14177;51.520;6.764;2023-04-24T05:54:21;99908.69;;;10.36
69785;BMP280;14177;51.520;6.764;2023-04-24T05:56:49;99914.44;;;10.43
69785;BMP280;14177;51.520;6.764;2023-04-24T05:59:25;99914.56;;;10.40
69785;BMP280;14177;51.520;6.764;2023-04-24T06:01:53;99918.22;;;10.36
69785;BMP280;14177;51.520;6.764;2023-04-24T06:04:21;99914.78;;;10.35
69785;BMP280;14177;51.520;6.764;2023-04-24T06:06:50;99921.19;;;10.27
69785;BMP280;14177;51.520;6.764;2023-04-24T06:09:17;99927.25;;;10.27
69785;BMP280;14177;51.520;6.764;2023-04-24T06:11:44;99922.88;;;10.28
69785;BMP280;14177;51.520;6.764;2023-04-24T06:14:13;99929.41;;;10.18
69785;BMP280;14177;51.520;6.764;2023-04-24T06:17:02;99918.41;;;10.11
69785;BMP280;14177;51.520;6.764;2023-04-24T06:19:35;99913.22;;;10.11
69785;BMP280;14177;51.520;6.764;2023-04-24T06:22:02;99920.22;;;10.09
69785;BMP280;14177;51.520;6.764;2023-04-24T06:24:30;99913.44;;;10.07
69785;BMP280;14177;51.520;6.764;2023-04-24T06:26:57;99915.03;;;10.09
69785;BMP280;14177;51.520;6.764;2023-04-24T06:29:27;99915.69;;;10.14
69785;BMP280;14177;51.520;6.764;2023-04-24T06:31:53;99922.53;;;10.17
69785;BMP280;14177;51.520;6.764;2023-04-24T06:34:21;99911.16;;;10.19
69785;BMP280;14177;51.520;6.764;2023-04-24T06:36:48;99908.63;;;10.18
69785;BMP280;14177;51.520;6.764;2023-04-24T06:39:14;99908.91;;;10.12
69785;BMP280;14177;51.520;6.764;2023-04-24T06:41:41;99908.00;;;10.13
69785;BMP280;14177;51.520;6.764;2023-04-24T06:44:18;99905.41;;;10.13
69785;BMP280;14177;51.520;6.764;2023-04-24T06:46:44;99901.88;;;10.14
69785;BMP280;14177;51.520;6.764;2023-04-24T06:49:11;99904.50;;;10.14
69785;BMP280;14177;51.520;6.764;2023-04-24T06:51:38;99907.09;;;10.14
69785;BMP280;14177;51.520;6.764;2023-04-24T06:54:05;99911.41;;;10.13
69785;BMP280;14177;51.520;6.764;2023-04-24T06:56:32;99897.66;;;10.11
69785;BMP280;14177;51.520;6.764;2023-04-24T06:59:00;99905.53;;;10.10
69785;BMP280;14177;51.520;6.764;2023-04-24T07:01:27;99908.16;;;10.08
69785;BMP280;14177;51.520;6.764;2023-04-24T07:03:55;99912.41;;;10.11
69785;BMP280;14177;51.520;6.764;2023-04-24T07:06:22;99913.47;;;10.05
69785;BMP280;14177;51.520;6.764;2023-04-24T07:08:50;99900.81;;;9.98
69785;BMP280;14177;51.520;6.764;2023-04-24T07:11:17;99915.31;;;10.03
69785;BMP280;14177;51.520;6.764;2023-04-24T07:13:44;99913.59;;;10.02
69785;BMP280;14177;51.520;6.764;2023-04-24T07:16:11;99906.69;;;10.03
69785;BMP280;14177;51.520;6.764;2023-04-24T07:18:38;99911.91;;;10.01
69785;BMP280;14177;51.520;6.764;2023-04-24T07:21:07;99909.31;;;10.01
69785;BMP280;14177;51.520;6.764;2023-04-24T07:23:46;99924.06;;;10.01
69785;BMP280;14177;51.520;6.764;2023-04-24T07:26:19;99925.63;;;10.05
69785;BMP280;14177;51.520;6.764;2023-04-24T07:28:53;99913.34;;;10.08
69785;BMP280;14177;51.520;6.764;2023-04-24T07:31:20;99920.34;;;10.06
69785;BMP280;14177;51.520;6.764;2023-04-24T07:33:48;99923.16;;;10.02
69785;BMP280;14177;51.520;6.764;2023-04-24T07:36:26;99924.84;;;10.03
69785;BMP280;14177;51.520;6.764;2023-04-24T07:39:05;99920.97;;;10.13
69785;BMP280;14177;51.520;6.764;2023-04-24T07:41:40;99932.16;;;10.13
69785;BMP280;14177;51.520;6.764;2023-04-24T07:44:08;99934.25;;;10.05
69785;BMP280;14177;51.520;6.764;2023-04-24T07:46:36;99931.84;;;10.01
69785;BMP280;14177;51.520;6.764;2023-04-24T07:49:07;99940.69;;;9.95
69785;BMP280;14177;51.520;6.764;2023-04-24T07:51:41;99951.31;;;9.89
69785;BMP280;14177;51.520;6.764;2023-04-24T07:54:18;99941.91;;;9.87
69785;BMP280;14177;51.520;6.764;2023-04-24T07:56:48;99954.94;;;9.85
69785;BMP280;14177;51.520;6.764;2023-04-24T07:59:21;99949.16;;;9.79
69785;BMP280;14177;51.520;6.764;2023-04-24T08:01:56;99952.06;;;9.71
69785;BMP280;14177;51.520;6.764;2023-04-24T08:04:27;99960.81;;;9.69
69785;BMP280;14177;51.520;6.764;2023-04-24T08:06:56;99964.31;;;9.68
69785;BMP280;14177;51.520;6.764;2023-04-24T08:09:23;99959.66;;;9.55
69785;BMP280;14177;51.520;6.764;2023-04-24T08:11:53;99969.19;;;9.54
69785;BMP280;14177;51.520;6.764;2023-04-24T08:14:20;99972.00;;;9.48
69785;BMP280;14177;51.520;6.764;2023-04-24T08:16:47;99976.44;;;9.46
69785;BMP280;14177;51.520;6.764;2023-04-24T08:19:14;99980.84;;;9.44
69785;BMP280;14177;51.520;6.764;2023-04-24T08:21:41;99980.84;;;9.44
69785;BMP280;14177;51.520;6.764;2023-04-24T08:24:09;99993.00;;;9.42
69785;BMP280;14177;51.520;6.764;2023-04-24T08:26:36;99999.88;;;9.43
69785;BMP280;14177;51.520;6.764;2023-04-24T08:29:06;100010.84;;;9.50
69785;BMP280;14177;51.520;6.764;2023-04-24T08:31:34;100003.00;;;9.51
69785;BMP280;14177;51.520;6.764;2023-04-24T08:34:03;100027.97;;;9.54
69785;BMP280;14177;51.520;6.764;2023-04-24T08:36:32;100028.59;;;9.60
69785;BMP280;14177;51.520;6.764;2023-04-24T08:39:22;100032.06;;;9.59
69785;BMP280;14177;51.520;6.764;2023-04-24T08:42:15;100045.47;;;9.70
69785;BMP280;14177;51.520;6.764;2023-04-24T08:44:49;100047.84;;;9.76
69785;BMP280;14177;51.520;6.764;2023-04-24T08:47:20;100050.91;;;9.85
69785;BMP280;14177;51.520;6.764;2023-04-24T08:49:51;100046.84;;;10.01
69785;BMP280;14177;51.520;6.764;2023-04-24T08:53:09;100051.63;;;10.12
69785;BMP280;14177;51.520;6.764;2023-04-24T08:56:02;100068.44;;;10.23
69785;BMP280;14177;51.520;6.764;2023-04-24T08:58:29;100066.94;;;10.18
69785;BMP280;14177;51.520;6.764;2023-04-24T09:00:58;100065.53;;;10.09
69785;BMP280;14177;51.520;6.764;2023-04-24T09:03:28;100082.09;;;10.07
69785;BMP280;14177;51.520;6.764;2023-04-24T09:05:57;100077.81;;;10.06
69785;BMP280;14177;51.520;6.764;2023-04-24T09:08:26;100089.81;;;10.08
69785;BMP280;14177;51.520;6.764;2023-04-24T09:10:54;100097.78;;;10.04
69785;BMP280;14177;51.520;6.764;2023-04-24T09:13:22;100113.47;;;10.01
69785;BMP280;14177;51.520;6.764;2023-04-24T09:15:49;100129.34;;;9.92
69785;BMP280;14177;51.520;6.764;2023-04-24T09:18:19;100133.09;;;9.85
69785;BMP280;14177;51.520;6.764;2023-04-24T09:21:09;100143.69;;;9.79
69785;BMP280;14177;51.520;6.764;2023-04-24T09:24:01;100155.81;;;9.78
69785;BMP280;14177;51.520;6.764;2023-04-24T09:26:35;100186.75;;;9.83
69785;BMP280;14177;51.520;6.764;2023-04-24T09:29:04;100186.09;;;9.78
69785;BMP280;14177;51.520;6.764;2023-04-24T09:31:33;100179.63;;;9.66
69785;BMP280;14177;51.520;6.764;2023-04-24T09:34:33;100201.41;;;9.61
69785;BMP280;14177;51.520;6.764;2023-04-24T09:37:07;100212.75;;;9.59
69785;BMP280;14177;51.520;6.764;2023-04-24T09:39:40;100211.66;;;9.64
69785;BMP280;14177;51.520;6.764;2023-04-24T09:42:08;100219.56;;;9.61
69785;BMP280;14177;51.520;6.764;2023-04-24T09:44:41;100225.81;;;9.56
69785;BMP280;14177;51.520;6.764;2023-04-24T09:47:11;100237.09;;;9.55
69785;BMP280;14177;51.520;6.764;2023-04-24T09:49:45;100236.22;;;9.54
69785;BMP280;14177;51.520;6.764;2023-04-24T09:52:20;100255.19;;;9.56
69785;BMP280;14177;51.520;6.764;2023-04-24T09:55:20;100257.66;;;9.59
69785;BMP280;14177;51.520;6.764;2023-04-24T10:01:53;100281.75;;;9.63
69785;BMP280;14177;51.520;6.764;2023-04-24T10:04:53;100278.31;;;9.62
69785;BMP280;14177;51.520;6.764;2023-04-24T10:08:14;100284.28;;;9.64
69785;BMP280;14177;51.520;6.764;2023-04-24T10:11:21;100290.34;;;9.64
69785;BMP280;14177;51.520;6.764;2023-04-24T10:13:52;100291.34;;;9.61
69785;BMP280;14177;51.520;6.764;2023-04-24T10:16:27;100316.31;;;9.63
69785;BMP280;14177;51.520;6.764;2023-04-24T10:18:59;100312.13;;;9.59
69785;BMP280;14177;51.520;6.764;2023-04-24T10:21:34;100312.78;;;9.65
69785;BMP280;14177;51.520;6.764;2023-04-24T10:24:05;100320.47;;;9.67
69785;BMP280;14177;51.520;6.764;2023-04-24T10:26:38;100328.97;;;9.72
69785;BMP280;14177;51.520;6.764;2023-04-24T10:29:18;100329.38;;;9.84
69785;BMP280;14177;51.520;6.764;2023-04-24T10:31:53;100328.38;;;9.88
69785;BMP280;14177;51.520;6.764;2023-04-24T10:34:23;100346.41;;;9.91
69785;BMP280;14177;51.520;6.764;2023-04-24T10:36:58;100340.41;;;9.91
69785;BMP280;14177;51.520;6.764;2023-04-24T10:39:29;100344.72;;;9.90
69785;BMP280;14177;51.520;6.764;2023-04-24T10:42:01;100343.03;;;9.89
69785;BMP280;14177;51.520;6.764;2023-04-24T10:44:50;100349.97;;;9.89
69785;BMP280;14177;51.520;6.764;2023-04-24T10:47:42;100346.31;;;9.94
69785;BMP280;14177;51.520;6.764;2023-04-24T10:50:10;100357.47;;;9.96
69785;BMP280;14177;51.520;6.764;2023-04-24T10:52:48;100355.38;;;10.09
69785;BMP280;14177;51.520;6.764;2023-04-24T10:55:15;100363.53;;;10.21
69785;BMP280;14177;51.520;6.764;2023-04-24T10:58:05;100362.25;;;10.33
69785;BMP280;14177;51.520;6.764;2023-04-24T11:00:32;100364.53;;;10.65
69785;BMP280;14177;51.520;6.764;2023-04-24T11:02:59;100370.22;;;10.95
69785;BMP280;14177;51.520;6.764;2023-04-24T11:06:05;100370.06;;;11.21
69785;BMP280;14177;51.520;6.764;2023-04-24T11:08:43;100371.31;;;11.33
69785;BMP280;14177;51.520;6.764;2023-04-24T11:11:16;100371.81;;;11.42
69785;BMP280;14177;51.520;6.764;2023-04-24T11:16:30;100373.66;;;11.39
69785;BMP280;14177;51.520;6.764;2023-04-24T11:22:05;100384.88;;;11.19
69785;BMP280;14177;51.520;6.764;2023-04-24T11:24:53;100410.88;;;11.19
69785;BMP280;14177;51.520;6.764;2023-04-24T11:30:08;100405.59;;;10.99
69785;BMP280;14177;51.520;6.764;2023-04-24T11:32:37;100412.91;;;10.90
69785;BMP280;14177;51.520;6.764;2023-04-24T11:35:22;100412.22;;;10.85
69785;BMP280;14177;51.520;6.764;2023-04-24T11:37:54;100422.84;;;10.79
69785;BMP280;14177;51.520;6.764;2023-04-24T11:40:24;100415.22;;;10.75
69785;BMP280;14177;51.520;6.764;2023-04-24T11:42:54;100434.09;;;10.80
69785;BMP280;14177;51.520;6.764;2023-04-24T11:45:26;100426.88;;;10.88
69785;BMP280;14177;51.520;6.764;2023-04-24T11:47:54;100441.16;;;10.99
69785;BMP280;14177;51.520;6.764;2023-04-24T11:50:26;100437.00;;;11.16
69785;BMP280;14177;51.520;6.764;2023-04-24T11:52:55;100436.88;;;11.19
69785;BMP280;14177;51.520;6.764;2023-04-24T11:55:25;100454.94;;;11.22
69785;BMP280;14177;51.520;6.764;2023-04-24T11:57:57;100449.88;;;11.19
69785;BMP280;14177;51.520;6.764;2023-04-24T12:00:30;100454.84;;;11.25
69785;BMP280;14177;51.520;6.764;2023-04-24T12:03:05;100459.91;;;11.28
69785;BMP280;14177;51.520;6.764;2023-04-24T12:05:33;100467.59;;;11.31
69785;BMP280;14177;51.520;6.764;2023-04-24T12:08:02;100449.50;;;11.28
69785;BMP280;14177;51.520;6.764;2023-04-24T12:10:31;100465.59;;;11.16
69785;BMP280;14177;51.520;6.764;2023-04-24T12:12:59;100470.66;;;11.19
69785;BMP280;14177;51.520;6.764;2023-04-24T12:15:27;100469.19;;;11.12
69785;BMP280;14177;51.520;6.764;2023-04-24T12:17:56;100485.25;;;11.00
69785;BMP280;14177;51.520;6.764;2023-04-24T12:20:28;100484.56;;;10.95
69785;BMP280;14177;51.520;6.764;2023-04-24T12:22:59;100493.34;;;10.93
69785;BMP280;14177;51.520;6.764;2023-04-24T12:25:30;100506.56;;;10.87
69785;BMP280;14177;51.520;6.764;2023-04-24T12:30:34;100501.63;;;11.02
69785;BMP280;14177;51.520;6.764;2023-04-24T12:33:02;100495.09;;;11.15
69785;BMP280;14177;51.520;6.764;2023-04-24T12:35:32;100508.66;;;11.23
69785;BMP280;14177;51.520;6.764;2023-04-24T12:38:15;100501.88;;;11.19
69785;BMP280;14177;51.520;6.764;2023-04-24T12:40:43;100493.03;;;11.23
69785;BMP280;14177;51.520;6.764;2023-04-24T12:43:19;100503.09;;;11.32
69785;BMP280;14177;51.520;6.764;2023-04-24T12:45:48;100502.28;;;11.53
69785;BMP280;14177;51.520;6.764;2023-04-24T12:48:15;100504.78;;;11.78
69785;BMP280;14177;51.520;6.764;2023-04-24T12:50:43;100506.03;;;11.89
69785;BMP280;14177;51.520;6.764;2023-04-24T12:53:13;100503.16;;;11.97
69785;BMP280;14177;51.520;6.764;2023-04-24T12:55:41;100513.56;;;11.97
69785;BMP280;14177;51.520;6.764;2023-04-24T12:58:08;100511.13;;;11.92
69785;BMP280;14177;51.520;6.764;2023-04-24T13:00:38;100522.69;;;11.85
69785;BMP280;14177;51.520;6.764;2023-04-24T13:03:06;100522.94;;;11.79
69785;BMP280;14177;51.520;6.764;2023-04-24T13:05:33;100530.63;;;11.82
69785;BMP280;14177;51.520;6.764;2023-04-24T13:08:00;100529.03;;;11.78
69785;BMP280;14177;51.520;6.764;2023-04-24T13:10:28;100533.59;;;11.73
69785;BMP280;14177;51.520;6.764;2023-04-24T13:13:01;100524.47;;;11.63
69785;BMP280;14177;51.520;6.764;2023-04-24T13:15:28;100540.19;;;11.60
69785;BMP280;14177;51.520;6.764;2023-04-24T13:17:55;100538.72;;;11.53
69785;BMP280;14177;51.520;6.764;2023-04-24T13:20:22;100546.78;;;11.46
69785;BMP280;14177;51.520;6.764;2023-04-24T13:22:49;100545.28;;;11.40
69785;BMP280;14177;51.520;6.764;2023-04-24T13:25:16;100547.97;;;11.37
69785;BMP280;14177;51.520;6.764;2023-04-24T13:27:44;100549.78;;;11.35
69785;BMP280;14177;51.520;6.764;2023-04-24T13:30:12;100548.31;;;11.28
69785;BMP280;14177;51.520;6.764;2023-04-24T13:32:39;100555.13;;;11.32
69785;BMP280;14177;51.520;6.764;2023-04-24T13:35:07;100547.22;;;11.34
69785;BMP280;14177;51.520;6.764;2023-04-24T13:37:34;100550.59;;;11.37
69785;BMP280;14177;51.520;6.764;2023-04-24T13:40:01;100544.03;;;11.50
69785;BMP280;14177;51.520;6.764;2023-04-24T13:42:28;100546.06;;;11.65
69785;BMP280;14177;51.520;6.764;2023-04-24T13:44:55;100549.75;;;11.81
69785;BMP280;14177;51.520;6.764;2023-04-24T13:47:22;100542.91;;;12.00
69785;BMP280;14177;51.520;6.764;2023-04-24T13:49:49;100545.44;;;12.23
69785;BMP280;14177;51.520;6.764;2023-04-24T13:52:16;100536.03;;;12.39
69785;BMP280;14177;51.520;6.764;2023-04-24T13:54:43;100539.97;;;12.49
69785;BMP280;14177;51.520;6.764;2023-04-24T13:57:10;100531.44;;;12.45
69785;BMP280;14177;51.520;6.764;2023-04-24T13:59:38;100529.81;;;12.43
69785;BMP280;14177;51.520;6.764;2023-04-24T14:02:05;100529.31;;;12.35
69785;BMP280;14177;51.520;6.764;2023-04-24T14:04:32;100537.41;;;12.27
69785;BMP280;14177;51.520;6.764;2023-04-24T14:06:59;100531.38;;;12.27
69785;BMP280;14177;51.520;6.764;2023-04-24T14:09:26;100542.72;;;12.26
69785;BMP280;14177;51.520;6.764;2023-04-24T14:11:53;100545.16;;;12.09
69785;BMP280;14177;51.520;6.764;2023-04-24T14:14:21;100544.59;;;12.01
69785;BMP280;14177;51.520;6.764;2023-04-24T14:16:48;100544.19;;;11.90
69785;BMP280;14177;51.520;6.764;2023-04-24T14:19:15;100542.13;;;11.77
69785;BMP280;14177;51.520;6.764;2023-04-24T14:21:41;100546.59;;;11.73
69785;BMP280;14177;51.520;6.764;2023-04-24T14:24:08;100555.41;;;11.69
69785;BMP280;14177;51.520;6.764;2023-04-24T14:26:36;100565.19;;;11.64
69785;BMP280;14177;51.520;6.764;2023-04-24T14:29:03;100569.84;;;11.56
69785;BMP280;14177;51.520;6.764;2023-04-24T14:31:41;100571.09;;;11.45
69785;BMP280;14177;51.520;6.764;2023-04-24T14:34:09;100578.56;;;11.31
69785;BMP280;14177;51.520;6.764;2023-04-24T14:36:36;100585.63;;;11.27
69785;BMP280;14177;51.520;6.764;2023-04-24T14:39:03;100596.16;;;11.24
69785;BMP280;14177;51.520;6.764;2023-04-24T14:41:34;100592.19;;;11.14